createdAt,value
2022-12-19T00:01:39.409Z,98887.38
2022-12-19T00:04:09.088Z,98887.53
2022-12-19T00:06:38.089Z,98870.13
2022-12-19T00:09:11.362Z,98866.28
2022-12-19T00:11:38.938Z,98865.78
2022-12-19T00:14:06.510Z,98859.16
2022-12-19T00:16:33.516Z,98850.19
2022-12-19T00:19:01.526Z,98851.53
2022-12-19T00:21:31.204Z,98849.66
2022-12-19T00:24:01.765Z,98851.16
2022-12-19T00:26:31.120Z,98836.91
2022-12-19T00:29:11.179Z,98839.88
2022-12-19T00:31:40.870Z,98836.91
2022-12-19T00:34:07.661Z,98825.44
2022-12-19T00:36:34.858Z,98815.81
2022-12-19T00:39:07.998Z,98777.63
2022-12-19T00:41:37.595Z,98771.16
2022-12-19T00:44:12.281Z,98823.41
2022-12-19T00:46:43.912Z,98824.44
2022-12-19T00:49:16.507Z,98796.03
2022-12-19T00:51:43.145Z,98774.78
2022-12-19T00:54:10.792Z,98781.44
2022-12-19T00:56:38.608Z,98776.28
2022-12-19T00:59:08.951Z,98760.19
2022-12-19T01:01:38.287Z,98770.00
2022-12-19T01:06:54.127Z,98760.88
2022-12-19T01:09:24.884Z,98752.56
2022-12-19T01:12:10.678Z,98755.56
2022-12-19T01:14:37.444Z,98756.72
2022-12-19T01:17:04.087Z,98736.97
2022-12-19T01:19:30.748Z,98724.84
2022-12-19T01:21:57.390Z,98715.22
2022-12-19T01:24:24.643Z,98709.91
2022-12-19T01:26:51.320Z,98710.75
2022-12-19T01:29:18.074Z,98733.66
2022-12-19T01:31:44.788Z,98722.69
2022-12-19T01:34:11.643Z,98739.13
2022-12-19T01:36:40.205Z,98741.94
2022-12-19T01:39:08.194Z,98736.31
2022-12-19T01:41:35.822Z,98732.63
2022-12-19T01:44:08.351Z,98727.84
2022-12-19T01:46:43.230Z,98721.50
2022-12-19T01:49:26.242Z,98720.38
2022-12-19T01:51:56.270Z,98713.88
2022-12-19T01:54:34.639Z,98693.47
2022-12-19T01:57:04.204Z,98677.00
2022-12-19T01:59:52.131Z,98671.56
2022-12-19T02:02:23.548Z,98676.72
2022-12-19T02:04:50.319Z,98662.25
2022-12-19T02:07:20.365Z,98647.63
2022-12-19T02:09:56.788Z,98655.78
2022-12-19T02:12:28.031Z,98633.53
2022-12-19T02:14:57.407Z,98639.84
2022-12-19T02:17:52.815Z,98633.69
2022-12-19T02:21:01.220Z,98630.72
2022-12-19T02:23:58.268Z,98615.75
2022-12-19T02:26:53.515Z,98610.13
2022-12-19T02:29:35.639Z,98595.00
2022-12-19T02:32:14.140Z,98588.34
2022-12-19T02:34:50.479Z,98587.38
2022-12-19T02:37:27.186Z,98580.06
2022-12-19T02:40:14.958Z,98581.22
2022-12-19T02:42:50.337Z,98596.63
2022-12-19T02:45:28.469Z,98624.53
2022-12-19T02:48:03.292Z,98646.44
2022-12-19T02:50:44.704Z,98641.97
2022-12-19T02:53:15.943Z,98640.63
2022-12-19T02:56:21.411Z,98631.03
2022-12-19T02:59:03.999Z,98611.09
2022-12-19T03:02:14.057Z,98592.78
2022-12-19T03:05:12.975Z,98601.78
2022-12-19T03:07:52.726Z,98587.16
2022-12-19T03:11:05.842Z,98579.19
2022-12-19T03:13:38.354Z,98569.53
2022-12-19T03:16:09.471Z,98560.91
2022-12-19T03:18:36.589Z,98541.97
2022-12-19T03:21:21.386Z,98538.66
2022-12-19T03:23:50.516Z,98541.31
2022-12-19T03:26:20.874Z,98546.00
2022-12-19T03:29:09.598Z,98546.97
2022-12-19T03:31:39.545Z,98537.34
2022-12-19T03:34:21.296Z,98523.06
2022-12-19T03:36:55.685Z,98529.56
2022-12-19T03:39:25.160Z,98525.91
2022-12-19T03:42:12.142Z,98506.94
2022-12-19T03:44:42.497Z,98500.44
2022-12-19T03:47:21.080Z,98491.31
2022-12-19T03:49:48.670Z,98490.97
2022-12-19T03:52:33.356Z,98492.59
2022-12-19T03:55:43.208Z,98478.16
2022-12-19T03:58:14.281Z,98485.13
2022-12-19T04:00:43.803Z,98486.59
2022-12-19T04:03:13.849Z,98492.75
2022-12-19T04:05:42.543Z,98506.50
2022-12-19T04:08:12.043Z,98504.88
2022-12-19T04:10:47.189Z,98501.19
2022-12-19T04:13:19.969Z,98520.66
2022-12-19T04:16:19.348Z,98508.19
2022-12-19T04:18:51.310Z,98502.03
2022-12-19T04:21:26.098Z,98490.41
2022-12-19T04:23:58.063Z,98494.69
2022-12-19T04:26:26.594Z,98496.00
2022-12-19T04:28:56.656Z,98504.28
2022-12-19T04:31:23.941Z,98507.59
2022-12-19T04:33:50.737Z,98492.31
2022-12-19T04:36:17.690Z,98481.31
2022-12-19T04:38:44.367Z,98465.72
2022-12-19T04:41:11.235Z,98448.56
2022-12-19T04:43:38.972Z,98446.75
2022-12-19T04:46:05.843Z,98453.53
2022-12-19T04:48:38.209Z,98450.69
2022-12-19T04:51:05.382Z,98447.88
2022-12-19T04:53:32.633Z,98432.56
2022-12-19T04:56:04.773Z,98428.34
2022-12-19T04:58:31.709Z,98444.78
2022-12-19T05:01:06.956Z,98459.94
2022-12-19T05:03:34.433Z,98437.63
2022-12-19T05:06:09.770Z,98427.63
2022-12-19T05:08:38.622Z,98432.78
2022-12-19T05:11:06.932Z,98430.50
2022-12-19T05:13:33.728Z,98411.69
2022-12-19T05:16:03.062Z,98396.75
2022-12-19T05:18:31.084Z,98406.34
2022-12-19T05:20:57.768Z,98411.69
2022-12-19T05:23:24.893Z,98413.34
2022-12-19T05:25:51.970Z,98416.81
2022-12-19T05:28:19.423Z,98417.00
2022-12-19T05:30:51.937Z,98412.53
2022-12-19T05:33:19.115Z,98407.66
2022-12-19T05:35:45.868Z,98406.03
2022-12-19T05:38:12.634Z,98402.34
2022-12-19T05:40:39.296Z,98400.31
2022-12-19T05:43:09.569Z,98416.28
2022-12-19T05:45:36.254Z,98410.97
2022-12-19T05:48:03.505Z,98401.16
2022-12-19T05:50:30.491Z,98400.31
2022-12-19T05:53:08.692Z,98400.31
2022-12-19T05:55:35.392Z,98396.28
2022-12-19T05:58:02.138Z,98395.47
2022-12-19T06:00:28.915Z,98387.31
2022-12-19T06:02:55.688Z,98401.06
2022-12-19T06:05:22.659Z,98394.94
2022-12-19T06:07:50.574Z,98391.44
2022-12-19T06:10:18.012Z,98388.59
2022-12-19T06:12:44.637Z,98383.91
2022-12-19T06:15:12.014Z,98380.59
2022-12-19T06:17:38.675Z,98373.09
2022-12-19T06:20:06.706Z,98378.41
2022-12-19T06:22:37.836Z,98378.78
2022-12-19T06:25:05.138Z,98373.91
2022-12-19T06:27:33.838Z,98362.47
2022-12-19T06:30:00.524Z,98363.94
2022-12-19T06:32:27.177Z,98366.59
2022-12-19T06:35:09.467Z,98367.22
2022-12-19T06:37:39.329Z,98353.56
2022-12-19T06:40:07.055Z,98356.03
2022-12-19T06:42:33.723Z,98365.84
2022-12-19T06:45:00.515Z,98346.59
2022-12-19T06:47:27.192Z,98351.91
2022-12-19T06:49:53.892Z,98359.72
2022-12-19T06:52:20.699Z,98363.03
2022-12-19T06:54:50.235Z,98355.69
2022-12-19T06:57:16.986Z,98348.91
2022-12-19T06:59:43.760Z,98345.84
2022-12-19T07:02:13.502Z,98340.19
2022-12-19T07:04:52.899Z,98351.09
2022-12-19T07:07:19.840Z,98352.28
2022-12-19T07:09:46.549Z,98360.09
2022-12-19T07:12:13.274Z,98351.28
2022-12-19T07:14:40.029Z,98352.94
2022-12-19T07:17:06.877Z,98353.38
2022-12-19T07:19:35.125Z,98347.69
2022-12-19T07:22:03.569Z,98341.00
2022-12-19T07:24:30.694Z,98342.38
2022-12-19T07:26:57.874Z,98346.50
2022-12-19T07:29:24.580Z,98343.28
2022-12-19T07:31:51.538Z,98343.28
2022-12-19T07:34:18.268Z,98335.94
2022-12-19T07:36:45.012Z,98327.41
2022-12-19T07:39:12.719Z,98331.72
2022-12-19T07:41:41.349Z,98325.84
2022-12-19T07:44:08.740Z,98329.13
2022-12-19T07:46:35.638Z,98326.94
2022-12-19T07:49:02.844Z,98318.75
2022-12-19T07:51:29.721Z,98314.06
2022-12-19T07:53:56.688Z,98317.56
2022-12-19T07:56:23.465Z,98315.34
2022-12-19T07:58:51.705Z,98322.34
2022-12-19T08:01:18.950Z,98313.78
2022-12-19T08:03:45.904Z,98310.28
2022-12-19T08:06:12.560Z,98296.41
2022-12-19T08:08:39.450Z,98300.13
2022-12-19T08:11:17.558Z,98304.94
2022-12-19T08:13:47.027Z,98311.06
2022-12-19T08:16:14.952Z,98300.41
2022-12-19T08:18:41.791Z,98304.06
2022-12-19T08:21:09.336Z,98314.38
2022-12-19T08:23:36.200Z,98299.38
2022-12-19T08:26:06.094Z,98310.03
2022-12-19T08:28:34.377Z,98311.31
2022-12-19T08:31:07.214Z,98307.28
2022-12-19T08:33:34.073Z,98299.91
2022-12-19T08:36:08.178Z,98294.59
2022-12-19T08:38:35.758Z,98307.09
2022-12-19T08:41:02.615Z,98300.94
2022-12-19T08:43:30.620Z,98314.06
2022-12-19T08:45:57.559Z,98296.50
2022-12-19T08:48:24.480Z,98299.34
2022-12-19T08:50:59.445Z,98285.84
2022-12-19T08:53:28.283Z,98277.84
2022-12-19T08:55:56.842Z,98280.16
2022-12-19T08:58:25.913Z,98283.06
2022-12-19T09:00:57.644Z,98284.06
2022-12-19T09:03:42.772Z,98281.03
2022-12-19T09:06:18.645Z,98272.00
2022-12-19T09:08:46.865Z,98277.13
2022-12-19T09:11:16.080Z,98273.25
2022-12-19T09:13:43.757Z,98260.56
2022-12-19T09:16:13.598Z,98258.53
2022-12-19T09:18:48.011Z,98252.22
2022-12-19T09:21:15.649Z,98250.53
2022-12-19T09:23:43.182Z,98250.41
2022-12-19T09:26:13.299Z,98246.75
2022-12-19T09:28:41.876Z,98250.47
2022-12-19T09:31:13.950Z,98253.38
2022-12-19T09:33:43.674Z,98265.50
2022-12-19T09:36:14.044Z,98255.88
2022-12-19T09:38:41.945Z,98259.19
2022-12-19T09:41:40.971Z,98254.47
2022-12-19T09:44:45.633Z,98252.66
2022-12-19T09:47:17.640Z,98264.97
2022-12-19T09:49:46.430Z,98265.16
2022-12-19T09:52:33.204Z,98260.53
2022-12-19T09:55:28.565Z,98249.84
2022-12-19T09:58:12.300Z,98253.38
2022-12-19T10:00:56.474Z,98255.63
2022-12-19T10:03:41.607Z,98251.16
2022-12-19T10:07:16.110Z,98253.25
2022-12-19T10:10:44.979Z,98254.72
2022-12-19T10:12:47.994Z,98252.06
2022-12-19T10:15:06.268Z,98248.44
2022-12-19T10:17:45.196Z,98252.16
2022-12-19T10:20:24.417Z,98249.94
2022-12-19T10:23:29.326Z,98253.06
2022-12-19T10:26:09.736Z,98247.50
2022-12-19T10:28:37.623Z,98244.81
2022-12-19T10:31:22.060Z,98238.66
2022-12-19T10:34:00.064Z,98231.47
2022-12-19T10:36:49.142Z,98235.56
2022-12-19T10:39:30.089Z,98240.91
2022-12-19T10:42:04.632Z,98237.63
2022-12-19T10:44:36.472Z,98239.88
2022-12-19T10:47:04.593Z,98242.72
2022-12-19T10:49:31.733Z,98238.59
2022-12-19T10:51:59.169Z,98224.63
2022-12-19T10:54:37.812Z,98227.75
2022-12-19T10:57:25.556Z,98233.09
2022-12-19T11:00:00.991Z,98252.00
2022-12-19T11:02:40.075Z,98249.94
2022-12-19T11:05:29.494Z,98249.75
2022-12-19T11:08:27.398Z,98246.47
2022-12-19T11:13:09.538Z,98248.13
2022-12-19T11:18:22.304Z,98236.44
2022-12-19T11:23:19.380Z,98230.47
2022-12-19T11:29:33.479Z,98216.09
2022-12-19T11:29:39.075Z,98217.75
2022-12-19T11:30:44.320Z,98212.41
2022-12-19T11:30:46.773Z,98207.69
2022-12-19T11:34:18.328Z,98201.56
2022-12-19T11:36:58.217Z,98207.72
2022-12-19T11:39:44.635Z,98220.25
2022-12-19T11:42:17.074Z,98208.53
2022-12-19T11:44:51.144Z,98207.53
2022-12-19T11:47:43.225Z,98200.53
2022-12-19T11:50:15.574Z,98195.00
2022-12-19T11:53:11.519Z,98189.25
2022-12-19T11:55:42.546Z,98180.88
2022-12-19T11:58:13.247Z,98183.13
2022-12-19T12:01:21.357Z,98183.75
2022-12-19T12:04:02.779Z,98164.03
2022-12-19T12:06:35.373Z,98168.13
2022-12-19T12:12:21.854Z,98168.34
2022-12-19T12:18:13.937Z,98172.25
2022-12-19T12:27:35.090Z,98175.34
2022-12-19T12:31:17.720Z,98168.97
2022-12-19T12:31:23.833Z,98155.84
2022-12-19T12:31:32.537Z,98159.94
2022-12-19T12:31:49.210Z,98150.50
2022-12-19T12:32:03.194Z,98148.00
2022-12-19T12:35:34.977Z,98145.53
2022-12-19T12:39:46.773Z,98135.88
2022-12-19T12:42:23.796Z,98140.19
2022-12-19T12:44:54.896Z,98127.69
2022-12-19T12:47:27.599Z,98124.59
2022-12-19T12:49:56.251Z,98125.19
2022-12-19T12:52:40.459Z,98123.16
2022-12-19T12:55:23.930Z,98122.09
2022-12-19T12:57:51.082Z,98123.78
2022-12-19T13:00:28.721Z,98120.28
2022-12-19T13:03:19.371Z,98111.41
2022-12-19T13:05:46.094Z,98108.75
2022-12-19T13:08:37.390Z,98115.56
2022-12-19T13:11:11.693Z,98106.06
2022-12-19T13:13:55.790Z,98095.00
2022-12-19T13:16:45.610Z,98091.72
2022-12-19T13:19:28.708Z,98088.41
2022-12-19T13:22:05.091Z,98084.94
2022-12-19T13:24:41.881Z,98083.88
2022-12-19T13:27:21.014Z,98078.53
2022-12-19T13:29:56.826Z,98071.34
2022-12-19T13:32:24.124Z,98068.66
2022-12-19T13:34:58.638Z,98065.00
2022-12-19T13:39:57.352Z,98051.19
2022-12-19T13:40:44.429Z,98056.78
2022-12-19T13:43:35.815Z,98046.09
2022-12-19T13:46:20.886Z,98051.44
2022-12-19T13:48:51.351Z,98048.94
2022-12-19T13:51:18.163Z,98050.59
2022-12-19T13:53:45.003Z,98040.91
2022-12-19T13:56:19.788Z,98033.53
2022-12-19T13:58:54.685Z,98036.19
2022-12-19T14:01:29.221Z,98027.56
2022-12-19T14:03:59.058Z,98025.50
2022-12-19T14:06:46.926Z,98012.75
2022-12-19T14:11:34.236Z,98010.09
2022-12-19T14:14:00.336Z,98005.34
2022-12-19T14:15:39.920Z,98006.16
2022-12-19T14:18:45.125Z,98006.41
2022-12-19T14:22:08.918Z,98008.22
2022-12-19T14:24:14.414Z,97996.72
2022-12-19T14:28:19.528Z,98000.81
2022-12-19T14:30:27.441Z,97995.72
2022-12-19T14:33:45.635Z,97994.03
2022-12-19T14:36:07.516Z,97984.78
2022-12-19T14:39:23.329Z,97988.69
2022-12-19T14:41:46.942Z,97980.66
2022-12-19T14:51:42.964Z,97966.28
2022-12-19T14:52:10.951Z,97972.44
2022-12-19T14:54:02.814Z,97968.97
2022-12-19T14:54:48.108Z,97956.59
2022-12-19T14:56:16.097Z,97958.47
2022-12-19T14:58:55.530Z,97958.28
2022-12-19T15:01:29.970Z,97956.63
2022-12-19T15:04:48.775Z,97954.41
2022-12-19T15:07:06.901Z,97949.06
2022-12-19T15:11:00.842Z,97950.06
2022-12-19T15:14:54.392Z,97954.41
2022-12-19T15:16:31.520Z,97950.25
2022-12-19T15:19:00.781Z,97949.44
2022-12-19T15:21:32.055Z,97947.81
2022-12-19T15:23:58.664Z,97942.47
2022-12-19T15:26:31.290Z,97950.25
2022-12-19T15:28:58.678Z,97937.75
2022-12-19T15:31:41.633Z,97943.28
2022-12-19T15:34:35.504Z,97926.44
2022-12-19T15:37:05.033Z,97926.44
2022-12-19T15:39:31.932Z,97934.22
2022-12-19T15:42:00.479Z,97928.06
2022-12-19T15:44:39.583Z,97936.50
2022-12-19T15:47:15.898Z,97918.81
2022-12-19T15:49:42.769Z,97918.19
2022-12-19T15:52:19.435Z,97919.66
2022-12-19T15:54:48.386Z,97922.31
2022-12-19T15:57:30.674Z,97907.09
2022-12-19T16:00:01.682Z,97907.09
2022-12-19T16:03:04.520Z,97905.84
2022-12-19T16:05:23.555Z,97906.91
2022-12-19T16:07:50.948Z,97902.56
2022-12-19T16:10:18.220Z,97893.13
2022-12-19T16:12:50.600Z,97890.66
2022-12-19T16:15:29.597Z,97890.25
2022-12-19T16:17:58.198Z,97900.06
2022-12-19T16:20:28.032Z,97897.41
2022-12-19T16:22:55.348Z,97892.91
2022-12-19T16:25:24.941Z,97894.94
2022-12-19T16:27:58.359Z,97896.16
2022-12-19T16:30:31.566Z,97895.94
2022-12-19T16:32:58.887Z,97877.81
2022-12-19T16:36:02.281Z,97888.13
2022-12-19T16:38:16.620Z,97878.69
2022-12-19T16:40:43.556Z,97873.56
2022-12-19T16:43:28.365Z,97875.00
2022-12-19T16:46:00.572Z,97882.63
2022-12-19T16:48:34.082Z,97875.25
2022-12-19T16:51:01.398Z,97874.84
2022-12-19T16:53:28.091Z,97877.72
2022-12-19T16:55:56.821Z,97877.31
2022-12-19T16:58:26.403Z,97871.56
2022-12-19T17:00:55.199Z,97864.75
2022-12-19T17:03:36.107Z,97864.16
2022-12-19T17:06:03.694Z,97863.09
2022-12-19T17:08:30.341Z,97858.81
2022-12-19T17:10:57.013Z,97861.69
2022-12-19T17:13:24.287Z,97862.09
2022-12-19T17:15:56.741Z,97860.44
2022-12-19T17:18:34.377Z,97865.13
2022-12-19T17:21:01.696Z,97870.69
2022-12-19T17:23:30.720Z,97868.84
2022-12-19T17:25:59.410Z,97869.88
2022-12-19T17:28:28.133Z,97863.91
2022-12-19T17:30:58.801Z,97851.00
2022-12-19T17:33:33.157Z,97848.31
2022-12-19T17:36:05.072Z,97848.72
2022-12-19T17:38:31.852Z,97848.50
2022-12-19T17:40:59.059Z,97840.72
2022-12-19T17:43:25.896Z,97843.78
2022-12-19T17:45:52.839Z,97841.72
2022-12-19T17:48:24.159Z,97846.25
2022-12-19T17:50:51.350Z,97839.66
2022-12-19T17:53:18.516Z,97836.16
2022-12-19T17:55:48.602Z,97835.13
2022-12-19T17:58:15.515Z,97823.63
2022-12-19T18:00:43.254Z,97821.78
2022-12-19T18:03:19.823Z,97816.91
2022-12-19T18:05:47.802Z,97834.56
2022-12-19T18:08:29.254Z,97830.25
2022-12-19T18:10:57.120Z,97833.94
2022-12-19T18:13:25.357Z,97828.19
2022-12-19T18:15:56.157Z,97834.41
2022-12-19T18:18:35.319Z,97835.22
2022-12-19T18:21:03.088Z,97841.78
2022-12-19T18:23:32.987Z,97847.84
2022-12-19T18:26:02.300Z,97835.50
2022-12-19T18:28:29.675Z,97852.78
2022-12-19T18:31:03.032Z,97849.50
2022-12-19T18:33:37.815Z,97842.09
2022-12-19T18:36:07.471Z,97852.56
2022-12-19T18:38:34.448Z,97861.44
2022-12-19T18:41:01.552Z,97861.03
2022-12-19T18:43:31.083Z,97872.78
2022-12-19T18:45:58.295Z,97875.84
2022-12-19T18:48:31.425Z,97882.25
2022-12-19T18:50:59.418Z,97887.78
2022-12-19T18:53:35.164Z,97906.50
2022-12-19T18:56:05.062Z,97900.94
2022-12-19T18:58:32.409Z,97904.88
2022-12-19T19:01:00.972Z,97900.78
2022-12-19T19:03:34.276Z,97906.72
2022-12-19T19:06:01.395Z,97909.19
2022-12-19T19:08:30.768Z,97907.34
2022-12-19T19:11:18.227Z,97932.59
2022-12-19T19:13:45.132Z,97940.78
2022-12-19T19:16:24.663Z,97957.25
2022-12-19T19:18:56.650Z,97964.44
2022-12-19T19:21:26.633Z,97966.06
2022-12-19T19:24:04.162Z,97976.13
2022-12-19T19:26:30.891Z,97980.25
2022-12-19T19:28:58.433Z,97983.78
2022-12-19T19:31:27.958Z,97987.28
2022-12-19T19:34:11.423Z,98000.84
2022-12-19T19:36:40.981Z,98003.09
2022-12-19T19:39:07.748Z,97993.47
2022-12-19T19:41:34.501Z,98001.72
2022-12-19T19:44:01.410Z,98004.38
2022-12-19T19:46:28.661Z,98027.81
2022-12-19T19:48:55.772Z,98035.59
2022-12-19T19:51:22.455Z,98059.63
2022-12-19T19:53:49.271Z,98065.59
2022-12-19T19:56:16.147Z,98074.22
2022-12-19T19:58:42.859Z,98072.53
2022-12-19T20:01:11.567Z,98070.06
2022-12-19T20:03:40.125Z,98080.09
2022-12-19T20:06:08.198Z,98087.47
2022-12-19T20:08:39.808Z,98094.00
2022-12-19T20:11:08.448Z,98100.94
2022-12-19T20:13:35.241Z,98125.91
2022-12-19T20:16:10.466Z,98127.50
2022-12-19T20:18:38.771Z,98133.63
2022-12-19T20:21:12.762Z,98143.03
2022-12-19T20:23:42.559Z,98149.16
2022-12-19T20:26:11.492Z,98152.81
2022-12-19T20:28:43.931Z,98173.28
2022-12-19T20:31:14.984Z,98171.56
2022-12-19T20:33:41.786Z,98171.69
2022-12-19T20:36:11.236Z,98182.72
2022-12-19T20:38:38.827Z,98185.16
2022-12-19T20:41:06.120Z,98179.97
2022-12-19T20:43:33.755Z,98181.19
2022-12-19T20:46:06.190Z,98185.59
2022-12-19T20:48:33.189Z,98198.03
2022-12-19T20:51:01.341Z,98184.66
2022-12-19T20:53:28.258Z,98181.31
2022-12-19T20:55:58.316Z,98171.03
2022-12-19T20:58:27.194Z,98175.09
2022-12-19T21:01:08.017Z,98183.38
2022-12-19T21:03:36.292Z,98198.91
2022-12-19T21:06:03.567Z,98187.13
2022-12-19T21:08:30.426Z,98190.03
2022-12-19T21:10:57.267Z,98205.47
2022-12-19T21:13:24.136Z,98222.16
2022-12-19T21:15:59.275Z,98237.25
2022-12-19T21:18:26.869Z,98245.78
2022-12-19T21:20:54.546Z,98264.41
2022-12-19T21:23:22.730Z,98265.47
2022-12-19T21:25:49.637Z,98275.19
2022-12-19T21:28:16.396Z,98282.81
2022-12-19T21:30:43.126Z,98284.69
2022-12-19T21:33:09.914Z,98285.72
2022-12-19T21:35:38.114Z,98283.78
2022-12-19T21:38:04.896Z,98298.44
2022-12-19T21:40:31.614Z,98308.22
2022-12-19T21:42:58.331Z,98321.03
2022-12-19T21:45:25.048Z,98344.16
2022-12-19T21:47:51.816Z,98341.66
2022-12-19T21:50:18.673Z,98364.41
2022-12-19T21:52:45.370Z,98374.41
2022-12-19T21:55:12.107Z,98377.06
2022-12-19T21:57:40.370Z,98379.22
2022-12-19T22:00:09.981Z,98386.88
2022-12-19T22:02:37.235Z,98402.06
2022-12-19T22:05:04.716Z,98387.44
2022-12-19T22:07:35.512Z,98378.81
2022-12-19T22:10:02.348Z,98388.66
2022-12-19T22:12:29.179Z,98399.00
2022-12-19T22:14:55.938Z,98396.38
2022-12-19T22:17:22.942Z,98402.03
2022-12-19T22:19:49.685Z,98407.69
2022-12-19T22:22:16.383Z,98401.25
2022-12-19T22:24:43.081Z,98412.56
2022-12-19T22:27:09.872Z,98406.09
2022-12-19T22:29:37.957Z,98413.06
2022-12-19T22:32:05.286Z,98425.50
2022-12-19T22:34:32.201Z,98428.66
2022-12-19T22:36:58.982Z,98433.00
2022-12-19T22:39:25.714Z,98431.31
2022-12-19T22:41:52.457Z,98443.75
2022-12-19T22:44:22.103Z,98446.44
2022-12-19T22:46:49.639Z,98450.56
2022-12-19T22:49:19.342Z,98452.56
2022-12-19T22:51:46.179Z,98448.97
2022-12-19T22:54:13.652Z,98463.91
2022-12-19T22:56:41.007Z,98465.09
2022-12-19T22:59:10.187Z,98493.78
2022-12-19T23:01:39.913Z,98496.25
2022-12-19T23:04:08.808Z,98500.72
2022-12-19T23:06:37.180Z,98509.34
2022-12-19T23:09:06.230Z,98520.97
2022-12-19T23:11:39.278Z,98520.47
2022-12-19T23:14:08.285Z,98519.28
2022-12-19T23:16:37.410Z,98521.28
2022-12-19T23:19:05.551Z,98522.28
2022-12-19T23:21:32.241Z,98515.00
2022-12-19T23:23:58.959Z,98521.44
2022-12-19T23:26:28.767Z,98507.34
2022-12-19T23:28:58.391Z,98514.84
2022-12-19T23:31:26.488Z,98520.63
2022-12-19T23:33:53.843Z,98532.91
2022-12-19T23:36:45.287Z,98526.75
2022-12-19T23:39:08.175Z,98529.41
2022-12-19T23:41:34.823Z,98532.22
2022-12-19T23:44:01.777Z,98542.81
2022-12-19T23:46:28.879Z,98542.16
2022-12-19T23:48:56.335Z,98533.84
2022-12-19T23:51:25.263Z,98542.94
2022-12-19T23:53:53.473Z,98545.09
2022-12-19T23:56:26.054Z,98547.56
2022-12-19T23:58:53.275Z,98549.75
